sensor_id;sensor_type;location;lat;lon;timestamp;P1;durP1;ratioP1;P2;durP2;ratioP2
17207;SDS011;8720;48.488;9.202;2023-02-28T00:01:20;5.55;;;3.80;;
17207;SDS011;8720;48.488;9.202;2023-02-28T00:03:49;6.00;;;4.57;;
17207;SDS011;8720;48.488;9.202;2023-02-28T00:06:17;5.60;;;3.38;;
17207;SDS011;8720;48.488;9.202;2023-02-28T00:08:48;6.15;;;4.60;;
17207;SDS011;8720;48.488;9.202;2023-02-28T00:11:19;4.47;;;4.07;;
17207;SDS011;8720;48.488;9.202;2023-02-28T00:13:47;5.05;;;4.07;;
17207;SDS011;8720;48.488;9.202;2023-02-28T00:16:15;5.88;;;4.45;;
17207;SDS011;8720;48.488;9.202;2023-02-28T00:18:46;6.90;;;4.18;;
17207;SDS011;8720;48.488;9.202;2023-02-28T00:21:15;5.20;;;3.53;;
17207;SDS011;8720;48.488;9.202;2023-02-28T00:23:44;5.60;;;3.92;;
17207;SDS011;8720;48.488;9.202;2023-02-28T00:26:11;7.65;;;3.83;;
17207;SDS011;8720;48.488;9.202;2023-02-28T00:28:44;4.80;;;3.90;;
17207;SDS011;8720;48.488;9.202;2023-02-28T00:31:11;5.40;;;4.20;;
17207;SDS011;8720;48.488;9.202;2023-02-28T00:33:38;4.85;;;3.88;;
17207;SDS011;8720;48.488;9.202;2023-02-28T00:36:07;6.45;;;3.60;;
17207;SDS011;8720;48.488;9.202;2023-02-28T00:38:36;6.15;;;3.72;;
17207;SDS011;8720;48.488;9.202;2023-02-28T00:41:05;4.57;;;3.75;;
17207;SDS011;8720;48.488;9.202;2023-02-28T00:43:34;6.93;;;3.67;;
17207;SDS011;8720;48.488;9.202;2023-02-28T00:46:05;4.28;;;3.85;;
17207;SDS011;8720;48.488;9.202;2023-02-28T00:48:34;4.40;;;4.00;;
17207;SDS011;8720;48.488;9.202;2023-02-28T00:51:02;4.90;;;3.60;;
17207;SDS011;8720;48.488;9.202;2023-02-28T00:53:30;6.00;;;3.67;;
17207;SDS011;8720;48.488;9.202;2023-02-28T00:55:58;6.65;;;4.03;;
17207;SDS011;8720;48.488;9.202;2023-02-28T00:58:26;4.85;;;3.95;;
17207;SDS011;8720;48.488;9.202;2023-02-28T01:00:53;4.55;;;4.05;;
17207;SDS011;8720;48.488;9.202;2023-02-28T01:03:22;4.30;;;3.90;;
17207;SDS011;8720;48.488;9.202;2023-02-28T01:05:49;6.88;;;3.70;;
17207;SDS011;8720;48.488;9.202;2023-02-28T01:08:18;3.97;;;3.33;;
17207;SDS011;8720;48.488;9.202;2023-02-28T01:10:46;6.28;;;4.38;;
17207;SDS011;8720;48.488;9.202;2023-02-28T01:13:14;5.25;;;4.05;;
17207;SDS011;8720;48.488;9.202;2023-02-28T01:15:43;4.68;;;3.75;;
17207;SDS011;8720;48.488;9.202;2023-02-28T01:18:17;5.05;;;4.05;;
17207;SDS011;8720;48.488;9.202;2023-02-28T01:20:47;5.45;;;4.18;;
17207;SDS011;8720;48.488;9.202;2023-02-28T01:23:16;5.90;;;3.90;;
17207;SDS011;8720;48.488;9.202;2023-02-28T01:25:45;7.10;;;4.38;;
17207;SDS011;8720;48.488;9.202;2023-02-28T01:28:13;4.90;;;4.05;;
17207;SDS011;8720;48.488;9.202;2023-02-28T01:30:40;5.28;;;4.40;;
17207;SDS011;8720;48.488;9.202;2023-02-28T01:33:07;7.53;;;4.07;;
17207;SDS011;8720;48.488;9.202;2023-02-28T01:35:35;6.97;;;4.47;;
17207;SDS011;8720;48.488;9.202;2023-02-28T01:38:04;6.63;;;4.55;;
17207;SDS011;8720;48.488;9.202;2023-02-28T01:40:31;5.50;;;4.18;;
17207;SDS011;8720;48.488;9.202;2023-02-28T01:42:59;3.95;;;3.47;;
17207;SDS011;8720;48.488;9.202;2023-02-28T01:45:27;4.50;;;3.50;;
17207;SDS011;8720;48.488;9.202;2023-02-28T01:47:57;6.30;;;4.15;;
17207;SDS011;8720;48.488;9.202;2023-02-28T01:50:33;6.15;;;4.10;;
17207;SDS011;8720;48.488;9.202;2023-02-28T01:53:07;6.18;;;5.22;;
17207;SDS011;8720;48.488;9.202;2023-02-28T01:55:42;4.43;;;3.60;;
17207;SDS011;8720;48.488;9.202;2023-02-28T01:58:16;6.40;;;4.43;;
17207;SDS011;8720;48.488;9.202;2023-02-28T02:00:45;4.45;;;3.40;;
17207;SDS011;8720;48.488;9.202;2023-02-28T02:03:14;4.72;;;4.03;;
17207;SDS011;8720;48.488;9.202;2023-02-28T02:05:45;5.57;;;4.05;;
17207;SDS011;8720;48.488;9.202;2023-02-28T02:08:15;5.68;;;4.22;;
17207;SDS011;8720;48.488;9.202;2023-02-28T02:10:48;6.05;;;3.72;;
17207;SDS011;8720;48.488;9.202;2023-02-28T02:16:30;5.93;;;4.05;;
17207;SDS011;8720;48.488;9.202;2023-02-28T02:19:15;5.72;;;3.55;;
17207;SDS011;8720;48.488;9.202;2023-02-28T02:22:33;5.25;;;3.65;;
17207;SDS011;8720;48.488;9.202;2023-02-28T02:25:49;5.13;;;4.32;;
17207;SDS011;8720;48.488;9.202;2023-02-28T02:28:33;5.07;;;3.97;;
17207;SDS011;8720;48.488;9.202;2023-02-28T02:31:33;4.88;;;4.10;;
17207;SDS011;8720;48.488;9.202;2023-02-28T02:34:30;5.40;;;3.92;;
17207;SDS011;8720;48.488;9.202;2023-02-28T02:37:17;5.32;;;4.13;;
17207;SDS011;8720;48.488;9.202;2023-02-28T02:40:00;4.57;;;3.75;;
17207;SDS011;8720;48.488;9.202;2023-02-28T02:42:39;4.45;;;3.88;;
17207;SDS011;8720;48.488;9.202;2023-02-28T02:45:27;6.95;;;3.92;;
17207;SDS011;8720;48.488;9.202;2023-02-28T02:48:02;5.57;;;4.00;;
17207;SDS011;8720;48.488;9.202;2023-02-28T02:50:34;3.95;;;3.40;;
17207;SDS011;8720;48.488;9.202;2023-02-28T02:53:06;5.25;;;4.00;;
17207;SDS011;8720;48.488;9.202;2023-02-28T02:55:38;6.45;;;4.32;;
17207;SDS011;8720;48.488;9.202;2023-02-28T02:58:13;5.97;;;4.45;;
17207;SDS011;8720;48.488;9.202;2023-02-28T03:03:28;5.32;;;4.13;;
17207;SDS011;8720;48.488;9.202;2023-02-28T03:06:00;4.70;;;4.25;;
17207;SDS011;8720;48.488;9.202;2023-02-28T03:08:33;5.10;;;4.10;;
17207;SDS011;8720;48.488;9.202;2023-02-28T03:11:03;5.22;;;4.20;;
17207;SDS011;8720;48.488;9.202;2023-02-28T03:13:51;4.65;;;3.95;;
17207;SDS011;8720;48.488;9.202;2023-02-28T03:16:48;8.38;;;4.47;;
17207;SDS011;8720;48.488;9.202;2023-02-28T03:19:38;5.35;;;3.80;;
17207;SDS011;8720;48.488;9.202;2023-02-28T03:22:27;5.90;;;4.20;;
17207;SDS011;8720;48.488;9.202;2023-02-28T03:25:17;7.00;;;4.43;;
17207;SDS011;8720;48.488;9.202;2023-02-28T03:27:59;6.18;;;4.35;;
17207;SDS011;8720;48.488;9.202;2023-02-28T03:30:34;5.85;;;4.15;;
17207;SDS011;8720;48.488;9.202;2023-02-28T03:33:12;5.07;;;4.00;;
17207;SDS011;8720;48.488;9.202;2023-02-28T03:35:49;6.88;;;4.47;;
17207;SDS011;8720;48.488;9.202;2023-02-28T03:38:24;6.50;;;4.85;;
17207;SDS011;8720;48.488;9.202;2023-02-28T03:41:01;8.40;;;4.93;;
17207;SDS011;8720;48.488;9.202;2023-02-28T03:43:41;4.90;;;4.40;;
17207;SDS011;8720;48.488;9.202;2023-02-28T03:46:18;5.75;;;4.82;;
17207;SDS011;8720;48.488;9.202;2023-02-28T03:48:51;5.10;;;4.60;;
17207;SDS011;8720;48.488;9.202;2023-02-28T03:51:27;7.38;;;5.10;;
17207;SDS011;8720;48.488;9.202;2023-02-28T03:53:59;6.10;;;4.38;;
17207;SDS011;8720;48.488;9.202;2023-02-28T03:56:37;7.18;;;5.88;;
17207;SDS011;8720;48.488;9.202;2023-02-28T03:59:10;5.32;;;4.75;;
17207;SDS011;8720;48.488;9.202;2023-02-28T04:01:44;8.82;;;4.30;;
17207;SDS011;8720;48.488;9.202;2023-02-28T04:04:15;6.43;;;5.20;;
17207;SDS011;8720;48.488;9.202;2023-02-28T04:06:43;6.00;;;4.70;;
17207;SDS011;8720;48.488;9.202;2023-02-28T04:09:13;5.90;;;4.50;;
17207;SDS011;8720;48.488;9.202;2023-02-28T04:11:41;4.57;;;4.15;;
17207;SDS011;8720;48.488;9.202;2023-02-28T04:14:12;4.85;;;4.45;;
17207;SDS011;8720;48.488;9.202;2023-02-28T04:16:40;5.10;;;4.60;;
17207;SDS011;8720;48.488;9.202;2023-02-28T04:19:09;7.22;;;5.25;;
17207;SDS011;8720;48.488;9.202;2023-02-28T04:21:39;5.72;;;5.13;;
17207;SDS011;8720;48.488;9.202;2023-02-28T04:24:09;5.82;;;5.22;;
17207;SDS011;8720;48.488;9.202;2023-02-28T04:26:40;6.25;;;4.68;;
17207;SDS011;8720;48.488;9.202;2023-02-28T04:29:11;7.18;;;5.45;;
17207;SDS011;8720;48.488;9.202;2023-02-28T04:31:40;6.45;;;5.30;;
17207;SDS011;8720;48.488;9.202;2023-02-28T04:34:07;6.65;;;5.15;;
17207;SDS011;8720;48.488;9.202;2023-02-28T04:36:35;7.55;;;4.72;;
17207;SDS011;8720;48.488;9.202;2023-02-28T04:39:02;6.97;;;4.40;;
17207;SDS011;8720;48.488;9.202;2023-02-28T04:41:31;5.80;;;5.13;;
17207;SDS011;8720;48.488;9.202;2023-02-28T04:43:59;6.00;;;4.80;;
17207;SDS011;8720;48.488;9.202;2023-02-28T04:46:26;6.22;;;4.82;;
17207;SDS011;8720;48.488;9.202;2023-02-28T04:48:55;7.72;;;5.30;;
17207;SDS011;8720;48.488;9.202;2023-02-28T04:51:23;5.57;;;4.68;;
17207;SDS011;8720;48.488;9.202;2023-02-28T04:53:50;9.07;;;5.75;;
17207;SDS011;8720;48.488;9.202;2023-02-28T04:56:18;7.05;;;5.65;;
17207;SDS011;8720;48.488;9.202;2023-02-28T04:58:47;6.93;;;5.47;;
17207;SDS011;8720;48.488;9.202;2023-02-28T05:01:17;7.32;;;5.63;;
17207;SDS011;8720;48.488;9.202;2023-02-28T05:03:49;7.13;;;5.70;;
17207;SDS011;8720;48.488;9.202;2023-02-28T05:06:17;5.72;;;4.97;;
17207;SDS011;8720;48.488;9.202;2023-02-28T05:08:49;6.57;;;5.30;;
17207;SDS011;8720;48.488;9.202;2023-02-28T05:11:18;6.45;;;4.97;;
17207;SDS011;8720;48.488;9.202;2023-02-28T05:13:50;7.93;;;5.50;;
17207;SDS011;8720;48.488;9.202;2023-02-28T05:16:18;6.72;;;5.43;;
17207;SDS011;8720;48.488;9.202;2023-02-28T05:18:46;5.03;;;4.53;;
17207;SDS011;8720;48.488;9.202;2023-02-28T05:21:22;8.05;;;6.22;;
17207;SDS011;8720;48.488;9.202;2023-02-28T05:23:55;6.57;;;5.78;;
17207;SDS011;8720;48.488;9.202;2023-02-28T05:26:24;11.25;;;6.32;;
17207;SDS011;8720;48.488;9.202;2023-02-28T05:28:55;7.13;;;6.43;;
17207;SDS011;8720;48.488;9.202;2023-02-28T05:31:23;7.65;;;6.30;;
17207;SDS011;8720;48.488;9.202;2023-02-28T05:33:50;11.25;;;6.10;;
17207;SDS011;8720;48.488;9.202;2023-02-28T05:36:18;6.40;;;5.75;;
17207;SDS011;8720;48.488;9.202;2023-02-28T05:38:46;9.35;;;5.68;;
17207;SDS011;8720;48.488;9.202;2023-02-28T05:41:14;6.90;;;6.10;;
17207;SDS011;8720;48.488;9.202;2023-02-28T05:43:42;8.38;;;5.75;;
17207;SDS011;8720;48.488;9.202;2023-02-28T05:46:11;6.50;;;5.90;;
17207;SDS011;8720;48.488;9.202;2023-02-28T05:48:40;9.50;;;6.95;;
17207;SDS011;8720;48.488;9.202;2023-02-28T05:51:09;7.93;;;6.40;;
17207;SDS011;8720;48.488;9.202;2023-02-28T05:53:36;7.05;;;6.03;;
17207;SDS011;8720;48.488;9.202;2023-02-28T05:56:04;7.63;;;6.05;;
17207;SDS011;8720;48.488;9.202;2023-02-28T05:58:32;7.30;;;5.65;;
17207;SDS011;8720;48.488;9.202;2023-02-28T06:01:00;8.07;;;5.85;;
17207;SDS011;8720;48.488;9.202;2023-02-28T06:03:48;10.65;;;7.10;;
17207;SDS011;8720;48.488;9.202;2023-02-28T06:06:16;9.55;;;6.35;;
17207;SDS011;8720;48.488;9.202;2023-02-28T06:08:43;8.95;;;6.70;;
17207;SDS011;8720;48.488;9.202;2023-02-28T06:11:10;8.98;;;6.65;;
17207;SDS011;8720;48.488;9.202;2023-02-28T06:13:38;8.20;;;6.25;;
17207;SDS011;8720;48.488;9.202;2023-02-28T06:16:06;8.85;;;6.50;;
17207;SDS011;8720;48.488;9.202;2023-02-28T06:18:35;7.40;;;6.40;;
17207;SDS011;8720;48.488;9.202;2023-02-28T06:21:03;8.32;;;6.80;;
17207;SDS011;8720;48.488;9.202;2023-02-28T06:23:31;10.55;;;6.85;;
17207;SDS011;8720;48.488;9.202;2023-02-28T06:25:58;8.77;;;7.00;;
17207;SDS011;8720;48.488;9.202;2023-02-28T06:28:25;9.88;;;6.82;;
17207;SDS011;8720;48.488;9.202;2023-02-28T06:30:53;11.40;;;7.63;;
17207;SDS011;8720;48.488;9.202;2023-02-28T06:33:20;7.75;;;6.80;;
17207;SDS011;8720;48.488;9.202;2023-02-28T06:35:49;9.40;;;7.18;;
17207;SDS011;8720;48.488;9.202;2023-02-28T06:38:17;8.98;;;7.10;;
17207;SDS011;8720;48.488;9.202;2023-02-28T06:40:48;10.60;;;6.55;;
17207;SDS011;8720;48.488;9.202;2023-02-28T06:43:20;7.60;;;6.82;;
17207;SDS011;8720;48.488;9.202;2023-02-28T06:45:47;10.27;;;7.20;;
17207;SDS011;8720;48.488;9.202;2023-02-28T06:48:15;7.50;;;6.70;;
17207;SDS011;8720;48.488;9.202;2023-02-28T06:50:43;8.70;;;7.13;;
17207;SDS011;8720;48.488;9.202;2023-02-28T06:53:11;8.80;;;6.90;;
17207;SDS011;8720;48.488;9.202;2023-02-28T06:55:40;7.75;;;7.00;;
17207;SDS011;8720;48.488;9.202;2023-02-28T06:58:07;9.02;;;6.95;;
17207;SDS011;8720;48.488;9.202;2023-02-28T07:00:40;8.20;;;7.30;;
17207;SDS011;8720;48.488;9.202;2023-02-28T07:03:07;8.15;;;7.32;;
17207;SDS011;8720;48.488;9.202;2023-02-28T07:05:35;9.55;;;7.65;;
17207;SDS011;8720;48.488;9.202;2023-02-28T07:08:03;9.38;;;7.03;;
17207;SDS011;8720;48.488;9.202;2023-02-28T07:10:33;13.00;;;7.72;;
17207;SDS011;8720;48.488;9.202;2023-02-28T07:13:03;10.10;;;7.90;;
17207;SDS011;8720;48.488;9.202;2023-02-28T07:15:31;12.40;;;8.40;;
17207;SDS011;8720;48.488;9.202;2023-02-28T07:17:58;12.80;;;8.77;;
17207;SDS011;8720;48.488;9.202;2023-02-28T07:20:26;10.88;;;8.40;;
17207;SDS011;8720;48.488;9.202;2023-02-28T07:22:53;10.75;;;8.10;;
17207;SDS011;8720;48.488;9.202;2023-02-28T07:25:21;11.70;;;9.20;;
17207;SDS011;8720;48.488;9.202;2023-02-28T07:27:51;11.43;;;8.73;;
17207;SDS011;8720;48.488;9.202;2023-02-28T07:30:18;11.20;;;9.07;;
17207;SDS011;8720;48.488;9.202;2023-02-28T07:32:46;12.00;;;10.25;;
17207;SDS011;8720;48.488;9.202;2023-02-28T07:35:14;15.00;;;9.25;;
17207;SDS011;8720;48.488;9.202;2023-02-28T07:37:41;12.07;;;9.20;;
17207;SDS011;8720;48.488;9.202;2023-02-28T07:40:09;14.20;;;8.50;;
17207;SDS011;8720;48.488;9.202;2023-02-28T07:42:38;11.60;;;9.20;;
17207;SDS011;8720;48.488;9.202;2023-02-28T07:45:10;11.23;;;8.77;;
17207;SDS011;8720;48.488;9.202;2023-02-28T07:47:37;11.30;;;8.30;;
17207;SDS011;8720;48.488;9.202;2023-02-28T07:50:05;15.55;;;10.13;;
17207;SDS011;8720;48.488;9.202;2023-02-28T07:52:35;12.13;;;9.40;;
17207;SDS011;8720;48.488;9.202;2023-02-28T07:55:04;10.15;;;8.38;;
17207;SDS011;8720;48.488;9.202;2023-02-28T07:57:33;14.20;;;9.23;;
17207;SDS011;8720;48.488;9.202;2023-02-28T08:00:00;10.40;;;9.20;;
17207;SDS011;8720;48.488;9.202;2023-02-28T08:02:38;10.77;;;9.23;;
17207;SDS011;8720;48.488;9.202;2023-02-28T08:05:06;13.60;;;9.30;;
17207;SDS011;8720;48.488;9.202;2023-02-28T08:07:34;13.43;;;9.40;;
17207;SDS011;8720;48.488;9.202;2023-02-28T08:10:02;12.38;;;9.00;;
17207;SDS011;8720;48.488;9.202;2023-02-28T08:12:31;11.83;;;9.23;;
17207;SDS011;8720;48.488;9.202;2023-02-28T08:14:59;14.17;;;10.20;;
17207;SDS011;8720;48.488;9.202;2023-02-28T08:17:26;14.10;;;10.23;;
17207;SDS011;8720;48.488;9.202;2023-02-28T08:19:55;11.70;;;9.77;;
17207;SDS011;8720;48.488;9.202;2023-02-28T08:22:22;14.07;;;10.33;;
17207;SDS011;8720;48.488;9.202;2023-02-28T08:24:49;18.77;;;9.60;;
17207;SDS011;8720;48.488;9.202;2023-02-28T08:27:17;13.00;;;10.50;;
17207;SDS011;8720;48.488;9.202;2023-02-28T08:29:44;11.87;;;9.27;;
17207;SDS011;8720;48.488;9.202;2023-02-28T08:32:11;15.63;;;11.10;;
17207;SDS011;8720;48.488;9.202;2023-02-28T08:34:39;14.17;;;8.90;;
17207;SDS011;8720;48.488;9.202;2023-02-28T08:37:08;12.27;;;9.50;;
17207;SDS011;8720;48.488;9.202;2023-02-28T08:39:35;15.03;;;10.07;;
17207;SDS011;8720;48.488;9.202;2023-02-28T08:42:03;13.13;;;10.10;;
17207;SDS011;8720;48.488;9.202;2023-02-28T08:44:31;12.40;;;9.53;;
17207;SDS011;8720;48.488;9.202;2023-02-28T08:46:59;12.80;;;9.87;;
17207;SDS011;8720;48.488;9.202;2023-02-28T08:49:26;16.63;;;10.73;;
17207;SDS011;8720;48.488;9.202;2023-02-28T08:51:53;15.20;;;11.43;;
17207;SDS011;8720;48.488;9.202;2023-02-28T08:54:23;11.20;;;9.60;;
17207;SDS011;8720;48.488;9.202;2023-02-28T08:56:51;15.37;;;10.90;;
17207;SDS011;8720;48.488;9.202;2023-02-28T08:59:18;12.30;;;10.37;;
17207;SDS011;8720;48.488;9.202;2023-02-28T09:01:45;9.97;;;8.70;;
17207;SDS011;8720;48.488;9.202;2023-02-28T09:04:13;11.63;;;10.10;;
17207;SDS011;8720;48.488;9.202;2023-02-28T09:06:40;13.70;;;10.50;;
17207;SDS011;8720;48.488;9.202;2023-02-28T09:09:08;13.10;;;10.40;;
17207;SDS011;8720;48.488;9.202;2023-02-28T09:11:37;10.90;;;9.10;;
17207;SDS011;8720;48.488;9.202;2023-02-28T09:14:04;13.33;;;10.43;;
17207;SDS011;8720;48.488;9.202;2023-02-28T09:16:32;17.10;;;9.97;;
17207;SDS011;8720;48.488;9.202;2023-02-28T09:19:00;14.63;;;10.97;;
17207;SDS011;8720;48.488;9.202;2023-02-28T09:21:28;15.50;;;10.50;;
17207;SDS011;8720;48.488;9.202;2023-02-28T09:23:55;12.10;;;10.77;;
17207;SDS011;8720;48.488;9.202;2023-02-28T09:26:23;11.13;;;9.93;;
17207;SDS011;8720;48.488;9.202;2023-02-28T09:28:54;10.30;;;9.20;;
17207;SDS011;8720;48.488;9.202;2023-02-28T09:31:24;13.80;;;10.20;;
17207;SDS011;8720;48.488;9.202;2023-02-28T09:33:55;13.30;;;9.90;;
17207;SDS011;8720;48.488;9.202;2023-02-28T09:36:25;19.63;;;12.73;;
17207;SDS011;8720;48.488;9.202;2023-02-28T09:38:55;16.13;;;11.60;;
17207;SDS011;8720;48.488;9.202;2023-02-28T09:41:23;14.70;;;10.67;;
17207;SDS011;8720;48.488;9.202;2023-02-28T09:43:55;13.27;;;10.03;;
17207;SDS011;8720;48.488;9.202;2023-02-28T09:46:29;11.90;;;9.87;;
17207;SDS011;8720;48.488;9.202;2023-02-28T09:49:02;14.57;;;10.77;;
17207;SDS011;8720;48.488;9.202;2023-02-28T09:51:40;11.60;;;10.40;;
17207;SDS011;8720;48.488;9.202;2023-02-28T09:54:17;11.57;;;10.37;;
17207;SDS011;8720;48.488;9.202;2023-02-28T09:56:49;12.30;;;10.37;;
17207;SDS011;8720;48.488;9.202;2023-02-28T09:59:25;14.07;;;10.70;;
17207;SDS011;8720;48.488;9.202;2023-02-28T10:02:13;14.13;;;10.77;;
17207;SDS011;8720;48.488;9.202;2023-02-28T10:05:06;11.47;;;9.90;;
17207;SDS011;8720;48.488;9.202;2023-02-28T10:07:47;15.50;;;12.03;;
17207;SDS011;8720;48.488;9.202;2023-02-28T10:10:32;12.53;;;10.10;;
17207;SDS011;8720;48.488;9.202;2023-02-28T10:13:11;14.43;;;10.37;;
17207;SDS011;8720;48.488;9.202;2023-02-28T10:15:49;13.83;;;10.20;;
17207;SDS011;8720;48.488;9.202;2023-02-28T10:18:24;14.57;;;9.37;;
17207;SDS011;8720;48.488;9.202;2023-02-28T10:21:02;12.60;;;10.80;;
17207;SDS011;8720;48.488;9.202;2023-02-28T10:23:31;12.90;;;11.10;;
17207;SDS011;8720;48.488;9.202;2023-02-28T10:26:05;12.43;;;10.53;;
17207;SDS011;8720;48.488;9.202;2023-02-28T10:28:41;14.20;;;10.70;;
17207;SDS011;8720;48.488;9.202;2023-02-28T10:31:10;13.47;;;10.30;;
17207;SDS011;8720;48.488;9.202;2023-02-28T10:33:44;13.63;;;10.50;;
17207;SDS011;8720;48.488;9.202;2023-02-28T10:36:13;13.00;;;9.93;;
17207;SDS011;8720;48.488;9.202;2023-02-28T10:38:45;13.00;;;10.33;;
17207;SDS011;8720;48.488;9.202;2023-02-28T10:41:14;14.53;;;10.53;;
17207;SDS011;8720;48.488;9.202;2023-02-28T10:43:53;17.53;;;10.20;;
17207;SDS011;8720;48.488;9.202;2023-02-28T10:46:45;12.23;;;10.97;;
17207;SDS011;8720;48.488;9.202;2023-02-28T10:49:14;15.13;;;10.60;;
17207;SDS011;8720;48.488;9.202;2023-02-28T10:51:47;13.00;;;11.00;;
17207;SDS011;8720;48.488;9.202;2023-02-28T10:54:22;12.20;;;9.97;;
17207;SDS011;8720;48.488;9.202;2023-02-28T10:57:07;12.10;;;10.20;;
17207;SDS011;8720;48.488;9.202;2023-02-28T10:59:43;12.83;;;10.93;;
17207;SDS011;8720;48.488;9.202;2023-02-28T11:05:00;12.47;;;10.60;;
17207;SDS011;8720;48.488;9.202;2023-02-28T11:07:28;13.57;;;10.70;;
17207;SDS011;8720;48.488;9.202;2023-02-28T11:09:56;11.30;;;9.87;;
17207;SDS011;8720;48.488;9.202;2023-02-28T11:12:26;12.27;;;10.03;;
17207;SDS011;8720;48.488;9.202;2023-02-28T11:15:00;12.80;;;10.37;;
17207;SDS011;8720;48.488;9.202;2023-02-28T11:17:33;10.83;;;9.30;;
17207;SDS011;8720;48.488;9.202;2023-02-28T11:20:03;11.23;;;10.10;;
17207;SDS011;8720;48.488;9.202;2023-02-28T11:22:35;10.20;;;9.10;;
17207;SDS011;8720;48.488;9.202;2023-02-28T11:25:12;12.77;;;9.80;;
17207;SDS011;8720;48.488;9.202;2023-02-28T11:27:49;11.37;;;9.87;;
17207;SDS011;8720;48.488;9.202;2023-02-28T11:30:32;12.10;;;10.80;;
17207;SDS011;8720;48.488;9.202;2023-02-28T11:35:50;13.13;;;10.27;;
17207;SDS011;8720;48.488;9.202;2023-02-28T11:38:24;12.90;;;10.03;;
17207;SDS011;8720;48.488;9.202;2023-02-28T11:40:58;12.30;;;10.40;;
17207;SDS011;8720;48.488;9.202;2023-02-28T11:43:48;10.60;;;9.60;;
17207;SDS011;8720;48.488;9.202;2023-02-28T11:46:38;10.80;;;9.57;;
17207;SDS011;8720;48.488;9.202;2023-02-28T11:49:28;11.63;;;9.63;;
17207;SDS011;8720;48.488;9.202;2023-02-28T11:52:06;11.20;;;10.10;;
17207;SDS011;8720;48.488;9.202;2023-02-28T11:55:07;11.00;;;9.70;;
17207;SDS011;8720;48.488;9.202;2023-02-28T11:57:56;11.27;;;9.50;;
17207;SDS011;8720;48.488;9.202;2023-02-28T12:01:04;10.60;;;9.50;;
17207;SDS011;8720;48.488;9.202;2023-02-28T12:04:03;12.27;;;10.77;;
17207;SDS011;8720;48.488;9.202;2023-02-28T12:06:50;13.33;;;10.67;;
17207;SDS011;8720;48.488;9.202;2023-02-28T12:09:40;10.90;;;9.90;;
17207;SDS011;8720;48.488;9.202;2023-02-28T12:12:27;11.90;;;10.63;;
17207;SDS011;8720;48.488;9.202;2023-02-28T12:15:21;11.33;;;10.13;;
17207;SDS011;8720;48.488;9.202;2023-02-28T12:21:15;12.13;;;10.83;;
17207;SDS011;8720;48.488;9.202;2023-02-28T12:24:02;12.60;;;10.97;;
17207;SDS011;8720;48.488;9.202;2023-02-28T12:27:02;12.90;;;10.37;;
17207;SDS011;8720;48.488;9.202;2023-02-28T12:29:38;17.53;;;10.93;;
17207;SDS011;8720;48.488;9.202;2023-02-28T12:32:16;12.00;;;10.80;;
17207;SDS011;8720;48.488;9.202;2023-02-28T12:34:50;15.37;;;10.50;;
17207;SDS011;8720;48.488;9.202;2023-02-28T12:37:29;12.17;;;10.97;;
17207;SDS011;8720;48.488;9.202;2023-02-28T12:40:11;11.27;;;10.17;;
17207;SDS011;8720;48.488;9.202;2023-02-28T12:42:42;14.43;;;10.77;;
17207;SDS011;8720;48.488;9.202;2023-02-28T12:45:15;11.87;;;10.10;;
17207;SDS011;8720;48.488;9.202;2023-02-28T12:47:48;13.10;;;10.50;;
17207;SDS011;8720;48.488;9.202;2023-02-28T12:50:26;10.33;;;9.33;;
17207;SDS011;8720;48.488;9.202;2023-02-28T12:52:58;12.07;;;10.10;;
17207;SDS011;8720;48.488;9.202;2023-02-28T12:55:35;11.30;;;9.17;;
17207;SDS011;8720;48.488;9.202;2023-02-28T12:58:15;11.30;;;10.20;;
17207;SDS011;8720;48.488;9.202;2023-02-28T13:01:04;11.60;;;10.13;;
17207;SDS011;8720;48.488;9.202;2023-02-28T13:04:08;13.93;;;10.17;;
17207;SDS011;8720;48.488;9.202;2023-02-28T13:10:40;10.77;;;9.67;;
17207;SDS011;8720;48.488;9.202;2023-02-28T13:13:17;9.80;;;8.80;;
17207;SDS011;8720;48.488;9.202;2023-02-28T13:16:00;11.87;;;10.33;;
17207;SDS011;8720;48.488;9.202;2023-02-28T13:18:33;14.33;;;11.00;;
17207;SDS011;8720;48.488;9.202;2023-02-28T13:21:05;12.20;;;10.67;;
17207;SDS011;8720;48.488;9.202;2023-02-28T13:29:59;12.43;;;10.60;;
17207;SDS011;8720;48.488;9.202;2023-02-28T13:32:29;11.80;;;10.60;;
17207;SDS011;8720;48.488;9.202;2023-02-28T13:35:14;11.27;;;10.17;;
17207;SDS011;8720;48.488;9.202;2023-02-28T13:38:16;11.17;;;9.80;;
17207;SDS011;8720;48.488;9.202;2023-02-28T13:44:11;12.33;;;10.63;;
17207;SDS011;8720;48.488;9.202;2023-02-28T13:49:51;10.60;;;9.50;;
17207;SDS011;8720;48.488;9.202;2023-02-28T13:52:20;10.97;;;9.97;;
17207;SDS011;8720;48.488;9.202;2023-02-28T13:57:59;14.53;;;11.27;;
17207;SDS011;8720;48.488;9.202;2023-02-28T14:01:02;12.83;;;10.70;;
17207;SDS011;8720;48.488;9.202;2023-02-28T14:03:46;10.80;;;8.50;;
17207;SDS011;8720;48.488;9.202;2023-02-28T14:06:38;9.77;;;8.73;;
17207;SDS011;8720;48.488;9.202;2023-02-28T14:09:19;10.00;;;8.87;;
17207;SDS011;8720;48.488;9.202;2023-02-28T14:11:52;12.37;;;9.10;;
17207;SDS011;8720;48.488;9.202;2023-02-28T14:17:26;11.00;;;9.63;;
17207;SDS011;8720;48.488;9.202;2023-02-28T14:19:57;10.23;;;9.13;;
17207;SDS011;8720;48.488;9.202;2023-02-28T14:22:44;10.57;;;9.57;;
17207;SDS011;8720;48.488;9.202;2023-02-28T14:25:30;10.93;;;9.30;;
17207;SDS011;8720;48.488;9.202;2023-02-28T14:28:10;11.33;;;9.20;;
17207;SDS011;8720;48.488;9.202;2023-02-28T14:30:51;11.20;;;10.00;;
17207;SDS011;8720;48.488;9.202;2023-02-28T14:33:38;10.27;;;9.27;;
17207;SDS011;8720;48.488;9.202;2023-02-28T14:36:26;10.47;;;9.40;;
17207;SDS011;8720;48.488;9.202;2023-02-28T14:38:59;11.67;;;9.50;;
17207;SDS011;8720;48.488;9.202;2023-02-28T14:41:33;12.20;;;9.10;;
17207;SDS011;8720;48.488;9.202;2023-02-28T14:44:12;11.70;;;8.87;;
17207;SDS011;8720;48.488;9.202;2023-02-28T14:46:43;11.73;;;10.57;;
17207;SDS011;8720;48.488;9.202;2023-02-28T14:49:15;12.00;;;9.20;;
17207;SDS011;8720;48.488;9.202;2023-02-28T14:51:48;12.07;;;9.53;;
17207;SDS011;8720;48.488;9.202;2023-02-28T14:54:39;10.20;;;9.00;;
17207;SDS011;8720;48.488;9.202;2023-02-28T14:57:19;13.10;;;9.97;;
17207;SDS011;8720;48.488;9.202;2023-02-28T14:59:57;9.60;;;8.60;;
17207;SDS011;8720;48.488;9.202;2023-02-28T15:02:38;11.60;;;8.70;;
17207;SDS011;8720;48.488;9.202;2023-02-28T15:05:19;9.87;;;8.87;;
17207;SDS011;8720;48.488;9.202;2023-02-28T15:08:04;9.53;;;8.40;;
17207;SDS011;8720;48.488;9.202;2023-02-28T15:10:38;10.00;;;9.00;;
17207;SDS011;8720;48.488;9.202;2023-02-28T15:13:11;10.57;;;8.67;;
17207;SDS011;8720;48.488;9.202;2023-02-28T15:15:44;10.70;;;8.53;;
17207;SDS011;8720;48.488;9.202;2023-02-28T15:18:21;9.73;;;7.87;;
17207;SDS011;8720;48.488;9.202;2023-02-28T15:20:57;11.30;;;8.90;;
17207;SDS011;8720;48.488;9.202;2023-02-28T15:23:30;11.50;;;9.40;;
17207;SDS011;8720;48.488;9.202;2023-02-28T15:25:59;11.43;;;10.00;;
17207;SDS011;8720;48.488;9.202;2023-02-28T15:28:27;10.27;;;9.20;;
17207;SDS011;8720;48.488;9.202;2023-02-28T15:30:57;10.40;;;9.37;;
17207;SDS011;8720;48.488;9.202;2023-02-28T15:33:27;9.87;;;8.90;;
17207;SDS011;8720;48.488;9.202;2023-02-28T15:36:12;10.50;;;9.43;;
17207;SDS011;8720;48.488;9.202;2023-02-28T15:38:46;10.87;;;8.80;;
17207;SDS011;8720;48.488;9.202;2023-02-28T15:41:21;11.50;;;8.83;;
17207;SDS011;8720;48.488;9.202;2023-02-28T15:46:59;11.40;;;9.40;;
17207;SDS011;8720;48.488;9.202;2023-02-28T15:49:37;9.10;;;7.80;;
17207;SDS011;8720;48.488;9.202;2023-02-28T15:52:15;11.97;;;10.10;;
17207;SDS011;8720;48.488;9.202;2023-02-28T15:54:46;10.30;;;9.30;;
17207;SDS011;8720;48.488;9.202;2023-02-28T15:57:15;10.70;;;9.60;;
17207;SDS011;8720;48.488;9.202;2023-02-28T15:59:49;10.10;;;9.07;;
17207;SDS011;8720;48.488;9.202;2023-02-28T16:02:22;12.57;;;9.70;;
17207;SDS011;8720;48.488;9.202;2023-02-28T16:04:59;10.93;;;9.87;;
17207;SDS011;8720;48.488;9.202;2023-02-28T16:07:47;12.90;;;10.07;;
17207;SDS011;8720;48.488;9.202;2023-02-28T16:10:14;9.70;;;8.70;;